Time;durP1;ratioP1;P1;durP2;ratioP2;P2;SDS_P1;SDS_P2;PMS_P1;PMS_P2;Temp;Humidity;BMP_temperature;BMP_pressure;BME280_temperature;BME280_humidity;BME280_pressure;Samples;Min_cycle;Max_cycle;Signal;HPM_P1;HPM_P2
2022/09/22 00:01:05;;;;;;;1.52;1.00;;;8.80;99.90;;;;;;5066382;28;20498;-58
2022/09/22 00:03:33;;;;;;;2.78;0.90;;;8.80;99.90;;;;;;5029269;28;20083;-58
2022/09/22 00:06:08;;;;;;;1.90;0.88;;;8.80;99.90;;;;;;5066099;28;20504;-59
2022/09/22 00:08:35;;;;;;;2.28;0.75;;;8.90;99.90;;;;;;5029098;28;20041;-59
2022/09/22 00:11:15;;;;;;;1.33;1.00;;;8.90;99.90;;;;;;5066332;28;20090;-59
2022/09/22 00:13:54;;;;;;;1.60;0.82;;;8.90;99.90;;;;;;5029326;28;20021;-58
2022/09/22 00:16:24;;;;;;;1.17;0.60;;;9.00;99.90;;;;;;5040261;28;20037;-58
2022/09/22 00:18:49;;;;;;;1.02;0.60;;;9.00;99.90;;;;;;5068582;28;20082;-59
2022/09/22 00:21:17;;;;;;;1.90;0.80;;;9.10;99.90;;;;;;5047584;28;20025;-58
2022/09/22 00:23:45;;;;;;;1.42;0.90;;;9.10;99.90;;;;;;5068476;28;20043;-59
2022/09/22 00:26:14;;;;;;;0.80;0.70;;;9.10;99.90;;;;;;5047282;28;20037;-57
2022/09/22 00:28:41;;;;;;;1.98;0.90;;;9.10;99.90;;;;;;5068534;28;20040;-58
2022/09/22 00:31:11;;;;;;;1.30;0.70;;;9.10;99.90;;;;;;5057898;28;20024;-58
2022/09/22 00:33:38;;;;;;;2.45;0.65;;;9.00;99.90;;;;;;5028970;28;20155;-59
2022/09/22 00:36:04;;;;;;;2.38;0.52;;;9.00;99.90;;;;;;5065834;28;20086;-60
2022/09/22 00:38:30;;;;;;;1.33;0.80;;;8.90;99.90;;;;;;5049206;28;20029;-59
2022/09/22 00:40:55;;;;;;;1.10;0.85;;;8.90;99.90;;;;;;5066234;28;20041;-59
2022/09/22 00:43:24;;;;;;;3.10;0.90;;;8.80;99.90;;;;;;5049554;28;20736;-58
2022/09/22 00:46:18;;;;;;;1.77;0.63;;;8.70;99.90;;;;;;5066456;28;20024;-58
2022/09/22 00:49:05;;;;;;;0.80;0.60;;;8.60;99.90;;;;;;5028810;28;20034;-60
2022/09/22 00:51:35;;;;;;;0.60;0.60;;;8.60;99.90;;;;;;5053665;28;20025;-59
2022/09/22 00:54:04;;;;;;;2.38;0.70;;;8.50;99.90;;;;;;5028911;28;20481;-59
2022/09/22 00:56:38;;;;;;;3.40;0.50;;;8.50;99.90;;;;;;5055347;28;20047;-60
2022/09/22 00:59:11;;;;;;;0.88;0.57;;;8.40;99.90;;;;;;5032708;28;20393;-58
2022/09/22 01:01:38;;;;;;;0.98;0.60;;;8.40;99.90;;;;;;5041775;28;20025;-59
2022/09/22 01:04:05;;;;;;;0.65;0.50;;;8.30;99.90;;;;;;5072004;28;20028;-59
2022/09/22 01:06:30;;;;;;;2.90;0.70;;;8.30;99.90;;;;;;5050849;28;20044;-59
2022/09/22 01:08:57;;;;;;;1.33;0.77;;;8.30;99.90;;;;;;5071471;28;20425;-59
2022/09/22 01:11:24;;;;;;;0.82;0.75;;;8.20;99.90;;;;;;5050780;28;20045;-59
2022/09/22 01:14:50;;;;;;;1.00;0.80;;;8.20;99.90;;;;;;5071663;28;20060;-59
2022/09/22 01:17:38;;;;;;;11.00;1.95;;;8.20;99.90;;;;;;5066564;28;20030;-59
2022/09/22 01:20:36;;;;;;;3.47;0.95;;;8.20;99.90;;;;;;5056869;28;20037;-59
2022/09/22 01:23:34;;;;;;;3.00;0.63;;;8.10;99.90;;;;;;5055666;28;20464;-59
2022/09/22 01:26:43;;;;;;;2.08;1.00;;;8.10;99.90;;;;;;5044822;28;20028;-59
2022/09/22 01:29:26;;;;;;;4.10;1.00;;;8.10;99.90;;;;;;5028829;28;20401;-60
2022/09/22 01:32:09;;;;;;;2.60;1.17;;;8.00;99.90;;;;;;5051768;28;20033;-59
2022/09/22 01:35:16;;;;;;;2.00;0.82;;;8.00;99.90;;;;;;5040586;28;20032;-60
2022/09/22 01:37:56;;;;;;;1.30;1.20;;;8.10;99.90;;;;;;5049033;28;20098;-59
2022/09/22 01:40:41;;;;;;;1.75;1.20;;;8.00;99.90;;;;;;5052001;28;20066;-59
2022/09/22 01:43:20;;;;;;;3.53;1.30;;;8.00;99.90;;;;;;5071711;28;20024;-59
2022/09/22 01:45:47;;;;;;;1.95;1.10;;;8.00;99.90;;;;;;5041000;28;20040;-57
2022/09/22 01:48:25;;;;;;;3.35;1.20;;;8.00;99.90;;;;;;5071441;28;20382;-57
2022/09/22 01:50:58;;;;;;;1.05;0.90;;;8.00;99.90;;;;;;5041919;28;20013;-59
2022/09/22 01:53:29;;;;;;;1.40;0.90;;;8.00;99.90;;;;;;5071446;28;20024;-59
2022/09/22 01:55:58;;;;;;;1.58;1.23;;;7.90;99.90;;;;;;5042713;28;20040;-57
2022/09/22 01:58:56;;;;;;;2.10;1.00;;;7.90;99.90;;;;;;5071423;28;20017;-58
2022/09/22 02:01:29;;;;;;;1.58;1.10;;;7.80;99.90;;;;;;5041475;28;20036;-59
2022/09/22 02:04:01;;;;;;;1.15;1.02;;;7.70;99.90;;;;;;5031417;28;20034;-57
2022/09/22 02:06:34;;;;;;;1.10;1.00;;;7.70;99.90;;;;;;5050568;28;20034;-58
2022/09/22 02:09:06;;;;;;;1.15;0.95;;;7.60;99.90;;;;;;5031222;28;20034;-59
2022/09/22 02:11:32;;;;;;;1.52;1.25;;;7.60;99.90;;;;;;5068748;28;20124;-58
2022/09/22 02:13:59;;;;;;;1.55;0.88;;;7.50;99.90;;;;;;5051349;28;20021;-59
2022/09/22 02:16:26;;;;;;;5.90;1.27;;;7.40;99.90;;;;;;5068325;28;20024;-59
2022/09/22 02:18:57;;;;;;;1.45;0.93;;;7.40;99.90;;;;;;5051175;28;20444;-59
2022/09/22 02:21:25;;;;;;;2.45;1.10;;;7.30;99.90;;;;;;5048662;28;20056;-59
2022/09/22 02:23:51;;;;;;;1.98;1.15;;;7.30;99.90;;;;;;5050855;28;20094;-58
2022/09/22 02:26:22;;;;;;;1.50;0.90;;;7.20;99.90;;;;;;5068091;28;20492;-59
2022/09/22 02:28:55;;;;;;;1.08;0.95;;;7.20;99.90;;;;;;5030893;28;20065;-58
2022/09/22 02:31:23;;;;;;;4.85;0.90;;;7.10;99.90;;;;;;5047427;28;20040;-59
2022/09/22 02:33:50;;;;;;;1.13;0.95;;;7.10;99.90;;;;;;5050838;28;20029;-59
2022/09/22 02:36:55;;;;;;;2.67;1.25;;;7.00;99.90;;;;;;5068050;28;20041;-59
2022/09/22 02:39:26;;;;;;;1.40;1.00;;;7.00;99.90;;;;;;5030669;28;20028;-58
2022/09/22 02:42:27;;;;;;;1.02;0.93;;;6.90;99.90;;;;;;5042067;28;20029;-59
2022/09/22 02:45:10;;;;;;;3.60;1.33;;;6.80;99.90;;;;;;5030573;28;20021;-59
2022/09/22 02:47:50;;;;;;;1.10;1.00;;;6.80;99.90;;;;;;5047719;28;20044;-60
2022/09/22 02:50:20;;;;;;;1.40;1.20;;;6.70;99.90;;;;;;5030296;28;20038;-59
2022/09/22 02:52:45;;;;;;;1.00;0.85;;;6.60;99.90;;;;;;5030465;28;20030;-58
2022/09/22 02:55:12;;;;;;;1.40;1.10;;;6.60;99.90;;;;;;5068901;28;20020;-59
2022/09/22 02:57:38;;;;;;;1.35;1.00;;;6.50;99.90;;;;;;5048588;28;20032;-57
2022/09/22 03:00:04;;;;;;;1.13;0.82;;;6.40;99.90;;;;;;5068389;28;20021;-59
2022/09/22 03:02:30;;;;;;;3.20;0.90;;;6.40;99.90;;;;;;5045325;28;20075;-58
2022/09/22 03:04:56;;;;;;;4.07;1.02;;;6.30;99.90;;;;;;5069272;28;20032;-59
2022/09/22 03:07:22;;;;;;;1.20;0.88;;;6.30;99.90;;;;;;5048552;28;20048;-58
2022/09/22 03:09:48;;;;;;;2.42;0.93;;;6.20;99.90;;;;;;5069120;28;20233;-59
2022/09/22 03:12:13;;;;;;;2.40;1.08;;;6.20;99.90;;;;;;5048654;28;20033;-58
2022/09/22 03:14:39;;;;;;;1.30;0.90;;;6.10;99.90;;;;;;5069013;28;20523;-59
2022/09/22 03:17:04;;;;;;;5.05;1.55;;;6.10;99.90;;;;;;5048452;28;20029;-59
2022/09/22 03:19:30;;;;;;;1.00;0.90;;;6.10;99.90;;;;;;5068719;28;20029;-59
2022/09/22 03:21:55;;;;;;;2.25;1.02;;;6.00;99.90;;;;;;5048501;28;20528;-58
2022/09/22 03:24:21;;;;;;;1.27;1.15;;;6.00;99.90;;;;;;5068825;28;20024;-59
2022/09/22 03:26:46;;;;;;;1.05;0.88;;;5.90;99.90;;;;;;5048203;28;20501;-59
2022/09/22 03:29:12;;;;;;;1.23;0.93;;;5.90;99.90;;;;;;5068668;28;20033;-57
2022/09/22 03:31:37;;;;;;;1.77;1.13;;;5.90;99.90;;;;;;5056610;28;20124;-59
2022/09/22 03:34:03;;;;;;;1.42;0.90;;;5.80;99.90;;;;;;5050631;28;20196;-58
2022/09/22 03:36:28;;;;;;;1.23;1.08;;;5.80;99.90;;;;;;5067502;28;20504;-58
2022/09/22 03:38:54;;;;;;;1.42;1.02;;;5.80;99.90;;;;;;5049902;28;20396;-59
2022/09/22 03:41:19;;;;;;;1.60;1.00;;;5.70;99.90;;;;;;5066566;28;20039;-58
2022/09/22 03:43:45;;;;;;;3.03;1.20;;;5.70;99.90;;;;;;5069401;28;20025;-58
2022/09/22 03:46:11;;;;;;;1.85;1.27;;;5.70;99.90;;;;;;5053655;28;20392;-59
2022/09/22 03:48:37;;;;;;;3.15;0.90;;;5.60;99.90;;;;;;5069156;28;20031;-58
2022/09/22 03:51:02;;;;;;;2.42;1.15;;;5.60;99.90;;;;;;5052329;28;20017;-59
2022/09/22 03:53:28;;;;;;;4.45;1.25;;;5.50;99.90;;;;;;5067816;28;20422;-59
2022/09/22 03:56:07;;;;;;;1.67;1.08;;;5.50;99.90;;;;;;5050586;28;20024;-58
2022/09/22 03:58:33;;;;;;;2.78;1.58;;;5.40;99.90;;;;;;5046735;28;20523;-59
2022/09/22 04:00:58;;;;;;;3.63;1.95;;;5.40;99.90;;;;;;5044233;28;20079;-60
2022/09/22 04:03:24;;;;;;;2.00;1.52;;;5.40;99.90;;;;;;5045527;28;20021;-64
2022/09/22 04:05:50;;;;;;;3.08;1.42;;;5.40;99.90;;;;;;5051806;28;20044;-58
2022/09/22 04:08:16;;;;;;;3.88;2.10;;;5.40;99.90;;;;;;5046203;28;20213;-58
2022/09/22 04:10:44;;;;;;;5.15;2.45;;;5.30;99.90;;;;;;5047053;28;20029;-69
2022/09/22 04:13:09;;;;;;;5.97;2.90;;;5.30;99.90;;;;;;5068029;28;20027;-69
2022/09/22 04:15:35;;;;;;;6.75;3.15;;;5.30;99.90;;;;;;5045470;28;20029;-69
2022/09/22 04:18:00;;;;;;;8.57;4.05;;;5.30;99.90;;;;;;5067876;28;20377;-69
2022/09/22 04:20:26;;;;;;;13.90;6.78;;;5.20;99.90;;;;;;5037070;28;20018;-69
2022/09/22 04:22:52;;;;;;;20.55;9.30;;;5.20;99.90;;;;;;5040455;28;20036;-69
2022/09/22 04:25:17;;;;;;;19.13;8.27;;;5.20;99.90;;;;;;5054105;28;20116;-69
2022/09/22 04:27:43;;;;;;;13.57;7.40;;;5.20;99.90;;;;;;5045833;28;20051;-70
2022/09/22 04:30:09;;;;;;;10.55;5.90;;;5.10;99.90;;;;;;5052996;28;20059;-70
2022/09/22 04:32:34;;;;;;;20.90;10.38;;;5.10;99.90;;;;;;5046441;28;20035;-70
2022/09/22 04:35:00;;;;;;;25.15;10.65;;;5.10;99.90;;;;;;5061524;28;20048;-70
2022/09/22 04:37:26;;;;;;;18.95;9.30;;;5.10;99.90;;;;;;5050402;28;20091;-69
2022/09/22 04:39:53;;;;;;;21.27;9.93;;;5.10;99.90;;;;;;5069716;28;20031;-71
2022/09/22 04:42:19;;;;;;;23.40;9.85;;;5.00;99.90;;;;;;5049956;28;20025;-71
2022/09/22 04:44:45;;;;;;;20.45;7.60;;;5.00;99.90;;;;;;5070912;28;20070;-69
2022/09/22 04:47:11;;;;;;;14.10;6.88;;;5.00;99.90;;;;;;5050328;28;20450;-70
2022/09/22 04:49:37;;;;;;;9.45;5.32;;;5.00;99.90;;;;;;5072089;28;20064;-70
2022/09/22 04:52:03;;;;;;;12.57;5.57;;;5.00;99.90;;;;;;5051283;28;20021;-70
2022/09/22 04:54:28;;;;;;;11.65;5.50;;;5.00;99.90;;;;;;5070911;28;20115;-70
2022/09/22 04:56:54;;;;;;;12.70;5.60;;;5.00;99.90;;;;;;5060909;28;20108;-70
2022/09/22 04:59:19;;;;;;;10.38;4.45;;;5.00;99.90;;;;;;5051935;28;20036;-70
2022/09/22 05:01:45;;;;;;;8.55;5.07;;;5.00;99.90;;;;;;5066209;28;20025;-71
2022/09/22 05:04:10;;;;;;;9.25;4.47;;;5.00;99.90;;;;;;5051519;28;20017;-71
2022/09/22 05:06:36;;;;;;;7.28;3.83;;;5.00;99.90;;;;;;5068349;28;20064;-71
2022/09/22 05:09:02;;;;;;;9.23;4.07;;;5.00;99.90;;;;;;5072363;28;20039;-70
2022/09/22 05:11:29;;;;;;;7.68;3.40;;;5.00;99.90;;;;;;5056760;28;20020;-70
2022/09/22 05:13:55;;;;;;;20.13;4.50;;;5.00;99.90;;;;;;5056773;28;20033;-70
2022/09/22 05:16:22;;;;;;;6.07;3.83;;;5.10;99.90;;;;;;5069140;28;20028;-71
2022/09/22 05:18:49;;;;;;;16.45;6.63;;;5.10;99.90;;;;;;5071694;28;20039;-71
2022/09/22 05:21:16;;;;;;;57.85;20.05;;;5.10;99.90;;;;;;5053718;28;20480;-71
2022/09/22 05:23:42;;;;;;;43.25;19.70;;;5.10;99.90;;;;;;5071603;28;20033;-71
2022/09/22 05:26:07;;;;;;;37.33;16.13;;;5.20;99.90;;;;;;5051498;28;20116;-71
2022/09/22 05:28:33;;;;;;;27.48;12.25;;;5.20;99.90;;;;;;5070284;28;20037;-70
2022/09/22 05:30:59;;;;;;;28.88;11.93;;;5.20;99.90;;;;;;5051338;28;20393;-70
2022/09/22 05:33:25;;;;;;;22.30;10.05;;;5.30;99.90;;;;;;5071631;28;20024;-71
2022/09/22 05:35:50;;;;;;;14.18;8.40;;;5.30;99.90;;;;;;5051266;28;20476;-71
2022/09/22 05:38:16;;;;;;;13.38;7.28;;;5.30;99.90;;;;;;5071283;28;20040;-71
2022/09/22 05:40:46;;;;;;;14.23;7.80;;;5.50;99.90;;;;;;5050190;28;20024;-71
2022/09/22 05:43:11;;;;;;;9.93;5.65;;;6.30;99.90;;;;;;5050130;28;20029;-71
2022/09/22 05:45:37;;;;;;;8.70;4.38;;;7.50;99.90;;;;;;5069297;28;20515;-71
2022/09/22 05:48:03;;;;;;;5.78;3.92;;;8.60;99.90;;;;;;5048617;28;20056;-71
2022/09/22 05:50:28;;;;;;;6.82;3.50;;;9.60;99.90;;;;;;5070341;28;20032;-70
2022/09/22 05:53:09;;;;;;;4.55;3.28;;;10.50;99.90;;;;;;5048660;28;20032;-72
2022/09/22 05:55:35;;;;;;;5.13;3.42;;;11.50;99.90;;;;;;5031233;28;20503;-71
2022/09/22 05:58:01;;;;;;;8.48;4.68;;;12.30;99.60;;;;;;5050748;28;20082;-71
2022/09/22 06:00:28;;;;;;;7.88;4.68;;;12.90;94.90;;;;;;5070423;28;20025;-71
2022/09/22 06:02:53;;;;;;;7.20;4.50;;;13.60;94.80;;;;;;5049548;28;20032;-71
2022/09/22 06:05:19;;;;;;;6.43;3.80;;;14.20;91.60;;;;;;5070270;28;20024;-71
2022/09/22 06:07:45;;;;;;;4.72;3.80;;;14.70;90.90;;;;;;5049390;28;20029;-71
2022/09/22 06:10:11;;;;;;;6.90;4.10;;;15.30;87.50;;;;;;5070084;28;20044;-72
2022/09/22 06:12:37;;;;;;;8.05;3.50;;;15.80;85.40;;;;;;5049739;28;20029;-71
2022/09/22 06:15:04;;;;;;;3.25;2.88;;;16.40;81.40;;;;;;5070017;28;20538;-71
2022/09/22 06:17:30;;;;;;;4.00;2.60;;;17.00;79.20;;;;;;5049134;28;20489;-71
2022/09/22 06:19:56;;;;;;;3.28;1.88;;;17.50;77.20;;;;;;5069984;28;20036;-72
2022/09/22 06:22:23;;;;;;;5.90;2.80;;;18.00;74.00;;;;;;5043377;28;20056;-71
2022/09/22 06:24:49;;;;;;;5.18;2.85;;;18.50;70.30;;;;;;5070634;28;20032;-72
2022/09/22 06:27:14;;;;;;;5.32;2.67;;;18.90;69.70;;;;;;5057858;28;20029;-70
2022/09/22 06:29:40;;;;;;;5.03;2.42;;;19.30;68.10;;;;;;5051196;28;20029;-70
2022/09/22 06:32:07;;;;;;;5.72;2.70;;;19.80;67.20;;;;;;5067707;28;20112;-70
2022/09/22 06:34:33;;;;;;;4.40;3.03;;;20.20;64.80;;;;;;5055417;28;20035;-70
2022/09/22 06:36:59;;;;;;;5.47;2.75;;;20.60;63.30;;;;;;5068221;28;20027;-72
2022/09/22 06:39:25;;;;;;;7.43;2.80;;;21.00;60.30;;;;;;5049571;28;20037;-71
2022/09/22 06:41:50;;;;;;;3.72;2.50;;;21.40;58.00;;;;;;5067408;28;20033;-71
2022/09/22 06:44:16;;;;;;;5.25;2.42;;;21.80;56.80;;;;;;5070336;28;20028;-71
2022/09/22 06:46:41;;;;;;;3.65;2.00;;;22.10;54.40;;;;;;5053632;28;20424;-71
2022/09/22 06:49:07;;;;;;;3.92;1.80;;;22.40;52.50;;;;;;5068736;28;20082;-70
2022/09/22 06:51:35;;;;;;;3.30;1.60;;;22.70;51.30;;;;;;5052236;28;20074;-70
2022/09/22 06:54:03;;;;;;;2.15;1.50;;;22.80;46.10;;;;;;5069240;28;20029;-70
2022/09/22 06:56:34;;;;;;;2.40;1.35;;;22.40;45.00;;;;;;5051254;28;20107;-70
2022/09/22 06:59:00;;;;;;;1.52;0.95;;;22.70;42.10;;;;;;5070018;28;20052;-70
2022/09/22 07:01:29;;;;;;;2.35;1.30;;;22.80;44.30;;;;;;5050824;28;20086;-71
2022/09/22 07:03:54;;;;;;;1.42;0.98;;;22.90;41.40;;;;;;5069864;28;20028;-72
2022/09/22 07:06:21;;;;;;;2.42;0.80;;;22.90;42.60;;;;;;5049712;28;20037;-71
2022/09/22 07:08:47;;;;;;;1.10;0.70;;;22.70;42.00;;;;;;5069539;28;20503;-71
2022/09/22 07:11:25;;;;;;;1.50;0.80;;;22.60;42.20;;;;;;5048463;28;20451;-71
2022/09/22 07:13:53;;;;;;;0.85;0.75;;;22.50;38.20;;;;;;5069541;28;20035;-71
2022/09/22 07:16:20;;;;;;;1.40;0.80;;;22.30;39.50;;;;;;5048869;28;20029;-71
2022/09/22 07:18:54;;;;;;;1.70;0.75;;;22.40;39.70;;;;;;5069428;28;20567;-71
2022/09/22 07:21:26;;;;;;;1.00;0.80;;;22.20;37.30;;;;;;5029850;28;20029;-70
2022/09/22 07:23:56;;;;;;;0.95;0.80;;;22.20;39.70;;;;;;5063001;28;20048;-71
2022/09/22 07:26:31;;;;;;;1.48;0.60;;;22.30;34.80;;;;;;5048845;28;20040;-71
2022/09/22 07:28:58;;;;;;;1.05;0.70;;;22.60;37.30;;;;;;5069248;28;20488;-71
2022/09/22 07:31:29;;;;;;;1.45;0.75;;;22.50;37.40;;;;;;5048893;28;20094;-71
2022/09/22 07:33:55;;;;;;;1.85;0.68;;;21.90;36.00;;;;;;5069138;28;20021;-71
2022/09/22 07:36:24;;;;;;;0.77;0.77;;;21.30;29.90;;;;;;5047949;28;20684;-71
2022/09/22 07:38:52;;;;;;;0.73;0.63;;;20.80;30.20;;;;;;5069082;28;20020;-71
2022/09/22 07:41:23;;;;;;;0.70;0.65;;;20.30;35.20;;;;;;5046316;28;20032;-71
2022/09/22 07:43:51;;;;;;;0.70;0.65;;;20.00;37.90;;;;;;5068918;28;20044;-71
2022/09/22 07:46:17;;;;;;;1.42;0.70;;;19.90;30.80;;;;;;5047425;28;20021;-68
2022/09/22 07:48:46;;;;;;;2.63;0.70;;;19.80;38.20;;;;;;5029059;28;20275;-71
2022/09/22 07:51:22;;;;;;;0.85;0.63;;;19.70;35.70;;;;;;5068528;28;20107;-71
2022/09/22 07:53:53;;;;;;;1.00;0.70;;;19.70;33.90;;;;;;5069059;28;20497;-71
2022/09/22 07:56:20;;;;;;;0.90;0.60;;;19.80;36.10;;;;;;5028591;28;20056;-71
2022/09/22 07:58:52;;;;;;;0.70;0.65;;;20.10;38.90;;;;;;5068863;28;20447;-71
2022/09/22 08:01:22;;;;;;;1.20;0.70;;;20.10;34.40;;;;;;5049101;28;20100;-71
2022/09/22 08:03:49;;;;;;;4.28;0.77;;;20.00;36.10;;;;;;5047410;28;20198;-71
2022/09/22 08:06:17;;;;;;;31.27;13.27;;;20.00;37.60;;;;;;5068063;28;20029;-71
2022/09/22 08:08:45;;;;;;;10.38;4.53;;;20.20;36.70;;;;;;5046996;28;20111;-71
2022/09/22 08:11:22;;;;;;;4.85;2.35;;;20.20;36.90;;;;;;5067171;28;20396;-71
2022/09/22 08:13:59;;;;;;;2.15;1.25;;;19.90;28.30;;;;;;5028751;28;20080;-71
2022/09/22 08:16:30;;;;;;;1.45;0.88;;;19.80;34.20;;;;;;5027466;28;20034;-72
2022/09/22 08:18:58;;;;;;;1.33;0.90;;;19.60;33.40;;;;;;5068898;28;20028;-71
2022/09/22 08:21:31;;;;;;;3.47;0.80;;;19.40;35.30;;;;;;5046913;28;20104;-65
2022/09/22 08:23:58;;;;;;;2.00;0.85;;;19.60;35.50;;;;;;5022175;28;20025;-71
2022/09/22 08:26:23;;;;;;;2.35;1.00;;;19.80;35.50;;;;;;5067468;28;20032;-72
2022/09/22 08:28:53;;;;;;;1.85;0.88;;;20.10;35.20;;;;;;5066473;28;20519;-71
2022/09/22 08:31:20;;;;;;;0.52;0.52;;;20.30;32.90;;;;;;5048742;28;20029;-72
2022/09/22 08:33:48;;;;;;;0.55;0.50;;;20.20;32.80;;;;;;5046789;28;20108;-71
2022/09/22 08:36:14;;;;;;;5.68;2.25;;;19.30;29.00;;;;;;5067734;28;20064;-71
2022/09/22 08:38:41;;;;;;;5.40;2.20;;;19.10;32.50;;;;;;5047033;28;20083;-71
2022/09/22 08:41:25;;;;;;;2.70;1.27;;;19.10;32.30;;;;;;5067929;28;20048;-71
2022/09/22 08:44:00;;;;;;;1.88;0.90;;;19.30;30.10;;;;;;5046489;28;20036;-71
2022/09/22 08:46:53;;;;;;;0.82;0.63;;;19.00;28.40;;;;;;5028433;28;20551;-72
2022/09/22 08:52:45;;;;;;;1.13;0.70;;;19.00;26.90;;;;;;5036662;28;20035;-71
2022/09/22 08:55:18;;;;;;;1.00;0.52;;;18.60;29.90;;;;;;5048255;28;20021;-72
2022/09/22 08:58:03;;;;;;;0.93;0.63;;;18.70;30.10;;;;;;5046430;28;20028;-71
2022/09/22 09:00:35;;;;;;;0.63;0.50;;;19.00;28.60;;;;;;5027016;28;20400;-72
2022/09/22 09:03:37;;;;;;;0.57;0.35;;;19.10;27.60;;;;;;5038897;28;20048;-72
2022/09/22 09:06:21;;;;;;;0.82;0.52;;;18.90;26.50;;;;;;5028385;28;20037;-71
2022/09/22 09:09:08;;;;;;;1.10;0.50;;;19.00;26.50;;;;;;5044711;28;20558;-71
2022/09/22 09:11:56;;;;;;;0.68;0.50;;;18.90;25.90;;;;;;5026483;28;20026;-65
2022/09/22 09:14:45;;;;;;;3.75;1.02;;;18.90;27.90;;;;;;5028266;28;20049;-72
2022/09/22 09:17:18;;;;;;;3.15;0.90;;;19.40;28.10;;;;;;5038997;28;20024;-72
2022/09/22 09:19:53;;;;;;;2.88;1.35;;;19.80;25.70;;;;;;5071815;28;20031;-71
2022/09/22 09:22:31;;;;;;;1.25;0.88;;;19.90;26.90;;;;;;5038647;28;20021;-59
2022/09/22 09:25:06;;;;;;;1.13;0.57;;;19.80;26.40;;;;;;5071842;28;20491;-57
2022/09/22 09:27:38;;;;;;;0.55;0.55;;;20.00;26.10;;;;;;5045013;28;20028;-59
2022/09/22 09:30:16;;;;;;;1.48;0.60;;;20.00;24.70;;;;;;5051636;28;20045;-57
2022/09/22 09:32:50;;;;;;;1.13;0.50;;;19.90;23.80;;;;;;5069673;28;20047;-65
2022/09/22 09:35:41;;;;;;;3.42;1.92;;;19.90;25.10;;;;;;5053306;28;20318;-65
2022/09/22 09:38:14;;;;;;;1.15;0.77;;;20.20;25.20;;;;;;5052570;28;20504;-65
2022/09/22 09:40:40;;;;;;;1.38;0.60;;;20.20;24.50;;;;;;5031666;28;20108;-65
2022/09/22 09:43:06;;;;;;;1.02;0.70;;;20.30;23.40;;;;;;5056515;28;20108;-65
2022/09/22 09:45:59;;;;;;;0.70;0.50;;;20.40;24.00;;;;;;5070667;28;20025;-65
2022/09/22 09:48:43;;;;;;;1.40;0.80;;;20.60;21.80;;;;;;5043833;28;20079;-65
2022/09/22 09:51:11;;;;;;;0.80;0.50;;;20.70;22.50;;;;;;5031351;28;20037;-65
2022/09/22 09:53:44;;;;;;;8.50;2.67;;;20.60;21.30;;;;;;5052826;28;20029;-65
2022/09/22 09:56:22;;;;;;;2.10;0.90;;;20.40;20.30;;;;;;5031299;28;20087;-65
2022/09/22 10:01:43;;;;;;;0.50;0.47;;;19.90;21.30;;;;;;5031154;28;20412;-64
2022/09/22 10:04:18;;;;;;;2.05;0.73;;;19.60;21.70;;;;;;5067631;28;20028;-58
2022/09/22 10:06:45;;;;;;;0.50;0.50;;;19.10;23.20;;;;;;5030915;28;20533;-65
2022/09/22 10:09:21;;;;;;;0.95;0.55;;;19.20;22.70;;;;;;5031123;28;20113;-59
2022/09/22 10:12:00;;;;;;;1.35;0.50;;;19.40;21.70;;;;;;5029105;28;20030;-59
2022/09/22 10:14:30;;;;;;;2.05;0.52;;;19.60;21.00;;;;;;5070851;28;20051;-59
2022/09/22 10:16:56;;;;;;;0.73;0.32;;;19.60;20.70;;;;;;5049776;28;20028;-59
2022/09/22 10:19:31;;;;;;;1.30;0.50;;;19.50;19.90;;;;;;5070789;28;20020;-59
2022/09/22 10:22:15;;;;;;;0.90;0.40;;;19.40;17.70;;;;;;5031306;28;20116;-59
2022/09/22 10:24:52;;;;;;;1.35;0.32;;;19.10;17.70;;;;;;5070519;28;20027;-59
2022/09/22 10:27:25;;;;;;;0.25;0.25;;;19.10;19.40;;;;;;5035676;28;20051;-59
2022/09/22 10:30:12;;;;;;;0.40;0.32;;;19.20;19.70;;;;;;5070459;28;20028;-59
2022/09/22 10:32:37;;;;;;;;;;;19.20;19.40;;;;;;5055567;28;20039;-59
2022/09/22 10:35:26;;;;;;;1.17;0.55;;;19.00;19.10;;;;;;5060937;28;19921;-59
2022/09/22 10:37:56;;;;;;;0.70;0.43;;;19.00;20.10;;;;;;5066394;28;20119;-59
2022/09/22 10:40:22;;;;;;;1.38;0.50;;;19.00;18.90;;;;;;5050333;28;20036;-59
2022/09/22 10:42:51;;;;;;;0.60;0.32;;;18.50;19.60;;;;;;5066228;28;20029;-59
2022/09/22 10:45:19;;;;;;;1.67;0.63;;;18.30;19.20;;;;;;5070277;28;20032;-59
2022/09/22 10:47:56;;;;;;;1.45;0.38;;;18.10;18.80;;;;;;5055465;28;20044;-59
2022/09/22 10:50:44;;;;;;;0.93;0.40;;;17.70;17.80;;;;;;5068813;28;20388;-59
2022/09/22 10:53:45;;;;;;;0.93;0.30;;;17.60;17.80;;;;;;5049419;28;20035;-59
2022/09/22 10:56:32;;;;;;;0.90;0.50;;;17.60;18.30;;;;;;5030231;28;20644;-59
2022/09/22 10:59:05;;;;;;;1.85;0.52;;;17.60;19.40;;;;;;5045208;28;20025;-59
2022/09/22 11:01:45;;;;;;;0.80;0.55;;;17.60;20.00;;;;;;5030099;28;20049;-59
2022/09/22 11:04:17;;;;;;;1.27;0.50;;;17.60;20.50;;;;;;5046963;28;20049;-59
2022/09/22 11:13:01;;;;;;;0.45;0.30;;;17.10;22.20;;;;;;5040106;28;20514;-59
2022/09/22 11:16:01;;;;;;;0.50;0.50;;;17.00;20.90;;;;;;5050189;28;20124;-59
2022/09/22 11:18:44;;;;;;;0.90;0.47;;;16.80;22.30;;;;;;5051947;28;20057;-59
2022/09/22 11:21:42;;;;;;;0.68;0.45;;;16.60;21.80;;;;;;5029654;28;20022;-59
2022/09/22 11:24:39;;;;;;;0.85;0.32;;;16.70;21.10;;;;;;5038920;28;20082;-59
2022/09/22 11:27:14;;;;;;;0.80;0.35;;;16.80;21.20;;;;;;5066836;28;20487;-59
2022/09/22 11:29:58;;;;;;;0.35;0.32;;;16.90;21.60;;;;;;5068004;28;20041;-59
2022/09/22 11:32:54;;;;;;;0.77;0.50;;;16.80;21.20;;;;;;5033402;28;20093;-59
2022/09/22 11:35:37;;;;;;;1.13;0.30;;;16.80;21.30;;;;;;5057500;28;20044;-59
2022/09/22 11:38:30;;;;;;;0.40;0.35;;;16.70;19.80;;;;;;5043823;28;20098;-59
2022/09/22 11:41:34;;;;;;;0.30;0.30;;;16.80;20.50;;;;;;5029315;28;20087;-59
2022/09/22 11:44:49;;;;;;;1.10;0.50;;;17.00;20.40;;;;;;5043287;28;20393;-59
2022/09/22 11:47:25;;;;;;;1.08;0.28;;;16.90;20.40;;;;;;5041023;28;20083;-59
2022/09/22 11:50:29;;;;;;;;;;;16.90;20.60;;;;;;5048455;28;20032;-59
2022/09/22 11:53:07;;;;;;;0.40;0.40;;;16.90;19.80;;;;;;4998785;28;20513;-59
2022/09/22 11:55:57;;;;;;;1.17;0.30;;;17.00;18.50;;;;;;5026313;28;20053;-59
2022/09/22 11:58:26;;;;;;;0.32;0.30;;;17.10;19.30;;;;;;5031453;28;20044;-59
2022/09/22 12:01:03;;;;;;;0.68;0.30;;;17.20;19.20;;;;;;5068385;28;20048;-59
2022/09/22 12:03:36;;;;;;;1.75;0.30;;;17.30;19.30;;;;;;5049164;28;20032;-60
2022/09/22 12:06:04;;;;;;;1.05;0.90;;;17.20;19.80;;;;;;5028897;28;20137;-60
2022/09/22 12:08:47;;;;;;;0.88;0.40;;;17.30;19.80;;;;;;5066174;28;20032;-60
2022/09/22 12:11:15;;;;;;;0.50;0.28;;;17.40;19.80;;;;;;5028988;28;20490;-60
2022/09/22 12:13:44;;;;;;;0.35;0.35;;;17.40;19.90;;;;;;5053738;28;20112;-60
2022/09/22 12:16:29;;;;;;;0.60;0.40;;;17.30;19.70;;;;;;5068344;28;20111;-60
2022/09/22 12:19:12;;;;;;;0.73;0.32;;;17.30;18.90;;;;;;5041280;28;20025;-60
2022/09/22 12:21:51;;;;;;;1.70;0.40;;;17.30;18.70;;;;;;5028652;28;20486;-60
2022/09/22 12:24:17;;;;;;;0.52;0.30;;;17.40;18.50;;;;;;5046087;28;20018;-60
2022/09/22 12:26:45;;;;;;;0.82;0.50;;;17.30;16.70;;;;;;5068025;28;20035;-60
2022/09/22 12:29:13;;;;;;;0.22;0.20;;;17.20;18.20;;;;;;5046794;28;20040;-60
2022/09/22 12:31:40;;;;;;;0.30;0.30;;;17.40;18.60;;;;;;5067674;28;20033;-60
2022/09/22 12:34:19;;;;;;;1.67;0.32;;;17.30;18.60;;;;;;5048011;28;20033;-60
2022/09/22 12:36:46;;;;;;;0.80;0.40;;;17.40;18.40;;;;;;5068647;28;20020;-60
2022/09/22 12:39:24;;;;;;;0.38;0.38;;;17.60;18.70;;;;;;5046931;28;20029;-60
2022/09/22 12:42:15;;;;;;;0.30;0.30;;;17.70;18.70;;;;;;5067990;28;20575;-60
2022/09/22 12:44:50;;;;;;;2.38;1.23;;;17.90;18.60;;;;;;5028497;28;20048;-60
2022/09/22 12:47:32;;;;;;;1.07;0.70;;;18.00;18.60;;;;;;5028633;28;20045;-60
2022/09/22 12:50:00;;;;;;;0.32;0.32;;;18.10;18.70;;;;;;5028370;28;20034;-60
2022/09/22 12:52:41;;;;;;;0.30;0.30;;;18.20;18.50;;;;;;5069009;28;20310;-60
2022/09/22 12:55:26;;;;;;;0.88;0.63;;;18.10;15.30;;;;;;5072391;28;20021;-60
2022/09/22 12:57:53;;;;;;;0.63;0.32;;;18.00;15.50;;;;;;5039591;28;20060;-60
2022/09/22 13:00:27;;;;;;;3.50;0.35;;;17.90;16.30;;;;;;5072252;28;20025;-60
2022/09/22 13:02:55;;;;;;;0.30;0.30;;;17.80;15.40;;;;;;5039368;28;20112;-60
2022/09/22 13:05:23;;;;;;;1.42;0.50;;;17.70;16.20;;;;;;5072169;28;20028;-61
2022/09/22 13:07:50;;;;;;;2.25;0.50;;;17.70;16.20;;;;;;5054377;28;20063;-58
2022/09/22 13:10:21;;;;;;;0.85;0.30;;;17.50;17.10;;;;;;5071885;28;20025;-58
2022/09/22 13:13:02;;;;;;;1.08;0.40;;;17.60;17.50;;;;;;5053930;28;20029;-58
2022/09/22 13:15:49;;;;;;;0.55;0.30;;;17.80;17.50;;;;;;5071893;28;20028;-58
2022/09/22 13:18:34;;;;;;;0.45;0.40;;;17.90;17.80;;;;;;5044236;28;20512;-58
2022/09/22 13:21:10;;;;;;;0.15;0.10;;;18.10;17.50;;;;;;5032145;28;20034;-59
2022/09/22 13:23:36;;;;;;;1.35;0.52;;;18.10;16.70;;;;;;5041284;28;20052;-60
2022/09/22 13:26:12;;;;;;;0.98;0.40;;;18.00;17.20;;;;;;5071298;28;20765;-59
2022/09/22 13:28:37;;;;;;;0.30;0.30;;;18.00;17.20;;;;;;5049952;28;20022;-59
2022/09/22 13:31:11;;;;;;;1.45;0.50;;;18.10;17.60;;;;;;5052369;28;20025;-59